sensor_id;sensor_type;location;lat;lon;timestamp;pressure;altitude;pressure_sealevel;temperature;humidity
30021;BME280;16861;52.294;7.760;2022-11-15T00:00:54;99205.91;;;11.55;55.00
30021;BME280;16861;52.294;7.760;2022-11-15T00:03:23;99203.16;;;11.57;55.36
30021;BME280;16861;52.294;7.760;2022-11-15T00:05:50;99196.09;;;11.57;55.18
30021;BME280;16861;52.294;7.760;2022-11-15T00:08:17;99197.78;;;11.58;55.26
30021;BME280;16861;52.294;7.760;2022-11-15T00:10:54;99201.59;;;11.54;55.90
30021;BME280;16861;52.294;7.760;2022-11-15T00:13:20;99201.28;;;11.59;55.28
30021;BME280;16861;52.294;7.760;2022-11-15T00:15:47;99204.00;;;11.57;55.09
30021;BME280;16861;52.294;7.760;2022-11-15T00:18:14;99211.06;;;11.57;55.24
30021;BME280;16861;52.294;7.760;2022-11-15T00:20:41;99196.22;;;11.56;55.33
30021;BME280;16861;52.294;7.760;2022-11-15T00:23:08;99201.47;;;11.56;55.33
30021;BME280;16861;52.294;7.760;2022-11-15T00:25:35;99193.56;;;11.56;55.24
30021;BME280;16861;52.294;7.760;2022-11-15T00:28:02;99192.63;;;11.57;55.28
30021;BME280;16861;52.294;7.760;2022-11-15T00:30:29;99191.66;;;11.58;55.34
30021;BME280;16861;52.294;7.760;2022-11-15T00:32:56;99188.19;;;11.57;55.23
30021;BME280;16861;52.294;7.760;2022-11-15T00:35:22;99189.88;;;11.58;55.32
30021;BME280;16861;52.294;7.760;2022-11-15T00:37:49;99190.72;;;11.59;55.41
30021;BME280;16861;52.294;7.760;2022-11-15T00:40:15;99178.38;;;11.59;55.71
30021;BME280;16861;52.294;7.760;2022-11-15T00:42:42;99187.13;;;11.60;55.63
30021;BME280;16861;52.294;7.760;2022-11-15T00:45:09;99186.28;;;11.59;55.85
30021;BME280;16861;52.294;7.760;2022-11-15T00:47:36;99186.28;;;11.59;56.00
30021;BME280;16861;52.294;7.760;2022-11-15T00:50:03;99185.47;;;11.59;56.02
30021;BME280;16861;52.294;7.760;2022-11-15T00:52:29;99173.09;;;11.59;56.12
30021;BME280;16861;52.294;7.760;2022-11-15T00:54:56;99188.81;;;11.61;56.31
30021;BME280;16861;52.294;7.760;2022-11-15T00:57:22;99173.00;;;11.61;56.37
30021;BME280;16861;52.294;7.760;2022-11-15T00:59:49;99173.75;;;11.63;56.49
30021;BME280;16861;52.294;7.760;2022-11-15T01:02:15;99166.66;;;11.64;56.43
30021;BME280;16861;52.294;7.760;2022-11-15T01:04:41;99165.69;;;11.65;56.57
30021;BME280;16861;52.294;7.760;2022-11-15T01:07:08;99169.09;;;11.67;56.65
30021;BME280;16861;52.294;7.760;2022-11-15T01:09:35;99173.41;;;11.68;56.54
30021;BME280;16861;52.294;7.760;2022-11-15T01:12:01;99174.16;;;11.70;56.48
30021;BME280;16861;52.294;7.760;2022-11-15T01:14:27;99168.75;;;11.71;56.56
30021;BME280;16861;52.294;7.760;2022-11-15T01:16:54;99157.25;;;11.72;56.60
30021;BME280;16861;52.294;7.760;2022-11-15T01:19:20;99152.59;;;11.76;56.56
30021;BME280;16861;52.294;7.760;2022-11-15T01:21:50;99155.97;;;11.78;56.96
30021;BME280;16861;52.294;7.760;2022-11-15T01:24:17;99155.63;;;11.83;56.50
30021;BME280;16861;52.294;7.760;2022-11-15T01:26:44;99158.88;;;11.86;56.51
30021;BME280;16861;52.294;7.760;2022-11-15T01:29:10;99144.63;;;11.89;56.57
30021;BME280;16861;52.294;7.760;2022-11-15T01:31:37;99151.50;;;11.92;56.49
30021;BME280;16861;52.294;7.760;2022-11-15T01:34:04;99142.53;;;11.94;56.44
30021;BME280;16861;52.294;7.760;2022-11-15T01:36:30;99138.81;;;11.97;56.64
30021;BME280;16861;52.294;7.760;2022-11-15T01:38:59;99133.44;;;11.98;56.27
30021;BME280;16861;52.294;7.760;2022-11-15T01:41:29;99131.53;;;12.01;56.65
30021;BME280;16861;52.294;7.760;2022-11-15T01:47:07;99131.13;;;12.07;56.80
30021;BME280;16861;52.294;7.760;2022-11-15T01:49:38;99129.09;;;12.10;56.74
30021;BME280;16861;52.294;7.760;2022-11-15T01:52:09;99120.97;;;12.14;56.94
30021;BME280;16861;52.294;7.760;2022-11-15T01:54:36;99120.72;;;12.17;56.57
30021;BME280;16861;52.294;7.760;2022-11-15T01:57:08;99117.97;;;12.18;56.90
30021;BME280;16861;52.294;7.760;2022-11-15T01:59:37;99116.88;;;12.21;56.72
30021;BME280;16861;52.294;7.760;2022-11-15T02:02:06;99117.53;;;12.24;56.53
30021;BME280;16861;52.294;7.760;2022-11-15T02:04:40;99105.16;;;12.25;57.21
30021;BME280;16861;52.294;7.760;2022-11-15T02:07:10;99102.19;;;12.30;57.09
30021;BME280;16861;52.294;7.760;2022-11-15T02:09:37;99100.25;;;12.32;56.92
30021;BME280;16861;52.294;7.760;2022-11-15T02:12:05;99093.19;;;12.32;56.89
30021;BME280;16861;52.294;7.760;2022-11-15T02:14:35;99096.53;;;12.34;56.96
30021;BME280;16861;52.294;7.760;2022-11-15T02:19:39;99093.56;;;12.39;57.22
30021;BME280;16861;52.294;7.760;2022-11-15T02:28:10;99088.88;;;12.43;58.09
30021;BME280;16861;52.294;7.760;2022-11-15T02:33:50;99087.25;;;12.53;57.19
30021;BME280;16861;52.294;7.760;2022-11-15T02:36:42;99081.00;;;12.54;57.91
30021;BME280;16861;52.294;7.760;2022-11-15T02:39:12;99079.81;;;12.58;57.75
30021;BME280;16861;52.294;7.760;2022-11-15T02:42:02;99089.63;;;12.56;58.51
30021;BME280;16861;52.294;7.760;2022-11-15T02:44:37;99076.22;;;12.59;58.51
30021;BME280;16861;52.294;7.760;2022-11-15T02:47:11;99080.53;;;12.60;58.43
30021;BME280;16861;52.294;7.760;2022-11-15T02:49:43;99081.97;;;12.64;58.09
30021;BME280;16861;52.294;7.760;2022-11-15T02:52:19;99081.16;;;12.64;58.64
30021;BME280;16861;52.294;7.760;2022-11-15T02:54:57;99084.50;;;12.66;58.74
30021;BME280;16861;52.294;7.760;2022-11-15T02:57:45;99084.63;;;12.64;59.08
30021;BME280;16861;52.294;7.760;2022-11-15T03:00:18;99080.66;;;12.70;58.34
30021;BME280;16861;52.294;7.760;2022-11-15T03:05:53;99077.91;;;12.72;59.23
30021;BME280;16861;52.294;7.760;2022-11-15T03:08:33;99082.22;;;12.73;59.48
30021;BME280;16861;52.294;7.760;2022-11-15T03:11:09;99075.97;;;12.74;59.23
30021;BME280;16861;52.294;7.760;2022-11-15T03:13:56;99075.03;;;12.75;59.94
30021;BME280;16861;52.294;7.760;2022-11-15T03:18:58;99086.09;;;12.80;59.46
30021;BME280;16861;52.294;7.760;2022-11-15T03:21:28;99090.16;;;12.84;59.17
30021;BME280;16861;52.294;7.760;2022-11-15T03:23:57;99081.16;;;12.87;59.39
30021;BME280;16861;52.294;7.760;2022-11-15T03:26:28;99080.09;;;12.89;59.37
30021;BME280;16861;52.294;7.760;2022-11-15T03:29:00;99084.28;;;12.92;59.70
30021;BME280;16861;52.294;7.760;2022-11-15T03:31:33;99085.97;;;12.93;59.59
30021;BME280;16861;52.294;7.760;2022-11-15T03:37:10;99084.53;;;13.00;59.12
30021;BME280;16861;52.294;7.760;2022-11-15T03:39:39;99077.47;;;13.01;58.98
30021;BME280;16861;52.294;7.760;2022-11-15T03:42:31;99072.28;;;12.99;59.92
30021;BME280;16861;52.294;7.760;2022-11-15T03:47:32;99074.31;;;13.07;59.30
30021;BME280;16861;52.294;7.760;2022-11-15T03:50:21;99092.94;;;13.06;60.49
30021;BME280;16861;52.294;7.760;2022-11-15T03:52:49;99084.53;;;13.12;59.46
30021;BME280;16861;52.294;7.760;2022-11-15T03:55:20;99078.41;;;13.11;60.21
30021;BME280;16861;52.294;7.760;2022-11-15T03:57:50;99079.97;;;13.14;59.70
30021;BME280;16861;52.294;7.760;2022-11-15T04:00:18;99079.84;;;13.15;59.43
30021;BME280;16861;52.294;7.760;2022-11-15T04:05:19;99080.53;;;13.18;59.37
30021;BME280;16861;52.294;7.760;2022-11-15T04:07:46;99084.03;;;13.18;59.85
30021;BME280;16861;52.294;7.760;2022-11-15T04:10:13;99082.09;;;13.20;59.84
30021;BME280;16861;52.294;7.760;2022-11-15T04:12:42;99077.66;;;13.21;59.95
30021;BME280;16861;52.294;7.760;2022-11-15T04:15:15;99080.31;;;13.21;60.07
30021;BME280;16861;52.294;7.760;2022-11-15T04:18:08;99081.16;;;13.21;60.71
30021;BME280;16861;52.294;7.760;2022-11-15T04:20:34;99077.06;;;13.28;59.78
30021;BME280;16861;52.294;7.760;2022-11-15T04:23:22;99071.66;;;13.30;59.74
30021;BME280;16861;52.294;7.760;2022-11-15T04:28:34;99068.66;;;13.35;59.95
30021;BME280;16861;52.294;7.760;2022-11-15T04:31:00;99077.28;;;13.37;60.07
30021;BME280;16861;52.294;7.760;2022-11-15T04:33:27;99077.16;;;13.38;60.23
30021;BME280;16861;52.294;7.760;2022-11-15T04:35:54;99069.97;;;13.40;60.15
30021;BME280;16861;52.294;7.760;2022-11-15T04:38:39;99067.91;;;13.44;60.31
30021;BME280;16861;52.294;7.760;2022-11-15T04:41:06;99076.47;;;13.48;60.20
30021;BME280;16861;52.294;7.760;2022-11-15T04:43:32;99083.44;;;13.49;60.39
30021;BME280;16861;52.294;7.760;2022-11-15T04:45:59;99079.72;;;13.51;60.42
30021;BME280;16861;52.294;7.760;2022-11-15T04:48:26;99079.44;;;13.54;60.38
30021;BME280;16861;52.294;7.760;2022-11-15T04:50:52;99088.94;;;13.57;60.48
30021;BME280;16861;52.294;7.760;2022-11-15T04:53:19;99088.69;;;13.60;60.39
30021;BME280;16861;52.294;7.760;2022-11-15T04:55:46;99086.78;;;13.62;60.54
30021;BME280;16861;52.294;7.760;2022-11-15T04:58:13;99083.16;;;13.63;60.67
30021;BME280;16861;52.294;7.760;2022-11-15T05:00:40;99083.88;;;13.65;60.67
30021;BME280;16861;52.294;7.760;2022-11-15T05:03:08;99080.28;;;13.66;60.61
30021;BME280;16861;52.294;7.760;2022-11-15T05:05:53;99074.72;;;13.70;60.44
30021;BME280;16861;52.294;7.760;2022-11-15T05:08:20;99079.91;;;13.71;60.55
30021;BME280;16861;52.294;7.760;2022-11-15T05:10:47;99078.81;;;13.74;60.73
30021;BME280;16861;52.294;7.760;2022-11-15T05:13:13;99075.22;;;13.75;60.40
30021;BME280;16861;52.294;7.760;2022-11-15T05:15:40;99076.03;;;13.75;60.54
30021;BME280;16861;52.294;7.760;2022-11-15T05:18:07;99085.53;;;13.78;60.68
30021;BME280;16861;52.294;7.760;2022-11-15T05:20:33;99081.09;;;13.78;60.54
30021;BME280;16861;52.294;7.760;2022-11-15T05:22:59;99074.81;;;13.79;60.42
30021;BME280;16861;52.294;7.760;2022-11-15T05:25:26;99081.66;;;13.82;60.71
30021;BME280;16861;52.294;7.760;2022-11-15T05:27:53;99085.97;;;13.83;60.68
30021;BME280;16861;52.294;7.760;2022-11-15T05:30:19;99078.03;;;13.83;60.64
30021;BME280;16861;52.294;7.760;2022-11-15T05:32:47;99080.56;;;13.85;60.78
30021;BME280;16861;52.294;7.760;2022-11-15T05:35:40;99080.84;;;13.81;61.46
30021;BME280;16861;52.294;7.760;2022-11-15T05:38:07;99079.47;;;13.87;60.68
30021;BME280;16861;52.294;7.760;2022-11-15T05:40:35;99071.41;;;13.89;60.60
30021;BME280;16861;52.294;7.760;2022-11-15T05:43:03;99070.44;;;13.90;60.90
30021;BME280;16861;52.294;7.760;2022-11-15T05:45:31;99066.75;;;13.92;60.65
30021;BME280;16861;52.294;7.760;2022-11-15T05:48:01;99067.44;;;13.94;60.70
30021;BME280;16861;52.294;7.760;2022-11-15T05:50:30;99061.16;;;13.96;60.73
30021;BME280;16861;52.294;7.760;2022-11-15T05:52:57;99062.88;;;13.97;60.72
30021;BME280;16861;52.294;7.760;2022-11-15T05:55:30;99064.53;;;13.98;60.61
30021;BME280;16861;52.294;7.760;2022-11-15T05:57:58;99065.25;;;14.00;60.57
30021;BME280;16861;52.294;7.760;2022-11-15T06:00:24;99064.28;;;14.01;60.90
30021;BME280;16861;52.294;7.760;2022-11-15T06:02:51;99059.72;;;14.03;60.79
30021;BME280;16861;52.294;7.760;2022-11-15T06:05:17;99058.72;;;14.04;61.10
30021;BME280;16861;52.294;7.760;2022-11-15T06:07:44;99056.94;;;14.04;61.05
30021;BME280;16861;52.294;7.760;2022-11-15T06:10:10;99062.94;;;14.06;61.12
30021;BME280;16861;52.294;7.760;2022-11-15T06:12:37;99069.78;;;14.09;61.16
30021;BME280;16861;52.294;7.760;2022-11-15T06:15:04;99063.38;;;14.12;61.06
30021;BME280;16861;52.294;7.760;2022-11-15T06:17:30;99063.25;;;14.13;61.12
30021;BME280;16861;52.294;7.760;2022-11-15T06:19:57;99068.44;;;14.15;61.07
30021;BME280;16861;52.294;7.760;2022-11-15T06:22:23;99068.19;;;14.18;61.02
30021;BME280;16861;52.294;7.760;2022-11-15T06:24:50;99073.34;;;14.19;61.00
30021;BME280;16861;52.294;7.760;2022-11-15T06:27:17;99071.41;;;14.22;61.00
30021;BME280;16861;52.294;7.760;2022-11-15T06:29:43;99067.78;;;14.23;61.07
30021;BME280;16861;52.294;7.760;2022-11-15T06:32:10;99071.16;;;14.25;60.86
30021;BME280;16861;52.294;7.760;2022-11-15T06:34:36;99071.84;;;14.27;60.87
30021;BME280;16861;52.294;7.760;2022-11-15T06:37:03;99079.53;;;14.30;61.09
30021;BME280;16861;52.294;7.760;2022-11-15T06:39:30;99075.09;;;14.30;61.12
30021;BME280;16861;52.294;7.760;2022-11-15T06:41:56;99077.63;;;14.32;60.88
30021;BME280;16861;52.294;7.760;2022-11-15T06:44:23;99081.94;;;14.33;60.73
30021;BME280;16861;52.294;7.760;2022-11-15T06:46:49;99076.53;;;14.35;60.75
30021;BME280;16861;52.294;7.760;2022-11-15T06:49:16;99080.00;;;14.35;60.80
30021;BME280;16861;52.294;7.760;2022-11-15T06:51:43;99082.50;;;14.37;60.66
30021;BME280;16861;52.294;7.760;2022-11-15T06:54:09;99083.38;;;14.37;60.89
30021;BME280;16861;52.294;7.760;2022-11-15T06:56:36;99084.19;;;14.38;60.66
30021;BME280;16861;52.294;7.760;2022-11-15T06:59:02;99085.88;;;14.39;60.71
30021;BME280;16861;52.294;7.760;2022-11-15T07:01:29;99085.88;;;14.39;60.72
30021;BME280;16861;52.294;7.760;2022-11-15T07:03:56;99088.53;;;14.39;60.87
30021;BME280;16861;52.294;7.760;2022-11-15T07:06:22;99090.22;;;14.40;60.93
30021;BME280;16861;52.294;7.760;2022-11-15T07:08:49;99096.34;;;14.40;60.89
30021;BME280;16861;52.294;7.760;2022-11-15T07:11:15;99099.00;;;14.40;61.07
30021;BME280;16861;52.294;7.760;2022-11-15T07:13:42;99096.34;;;14.40;61.06
30021;BME280;16861;52.294;7.760;2022-11-15T07:16:09;99098.03;;;14.41;61.15
30021;BME280;16861;52.294;7.760;2022-11-15T07:18:40;99100.66;;;14.41;61.67
30021;BME280;16861;52.294;7.760;2022-11-15T07:21:09;99096.94;;;14.44;61.50
30021;BME280;16861;52.294;7.760;2022-11-15T07:23:37;99106.41;;;14.46;61.16
30021;BME280;16861;52.294;7.760;2022-11-15T07:26:05;99112.41;;;14.49;61.18
30021;BME280;16861;52.294;7.760;2022-11-15T07:28:31;99107.97;;;14.49;61.05
30021;BME280;16861;52.294;7.760;2022-11-15T07:31:02;99108.81;;;14.50;61.45
30021;BME280;16861;52.294;7.760;2022-11-15T07:33:28;99104.22;;;14.52;60.99
30021;BME280;16861;52.294;7.760;2022-11-15T07:35:59;99098.91;;;14.52;61.37
30021;BME280;16861;52.294;7.760;2022-11-15T07:38:28;99110.25;;;14.54;61.12
30021;BME280;16861;52.294;7.760;2022-11-15T07:40:59;99110.09;;;14.55;61.29
30021;BME280;16861;52.294;7.760;2022-11-15T07:43:26;99120.56;;;14.57;61.12
30021;BME280;16861;52.294;7.760;2022-11-15T07:45:56;99114.31;;;14.58;61.31
30021;BME280;16861;52.294;7.760;2022-11-15T07:48:25;99107.06;;;14.60;61.29
30021;BME280;16861;52.294;7.760;2022-11-15T07:51:14;99104.41;;;14.60;61.62
30021;BME280;16861;52.294;7.760;2022-11-15T07:53:41;99117.41;;;14.63;61.35
30021;BME280;16861;52.294;7.760;2022-11-15T07:56:08;99108.09;;;14.69;60.87
30021;BME280;16861;52.294;7.760;2022-11-15T07:58:36;99102.94;;;14.67;61.17
30021;BME280;16861;52.294;7.760;2022-11-15T08:01:06;99103.06;;;14.66;61.89
30021;BME280;16861;52.294;7.760;2022-11-15T08:03:34;99115.31;;;14.67;61.25
30021;BME280;16861;52.294;7.760;2022-11-15T08:06:01;99106.53;;;14.66;61.47
30021;BME280;16861;52.294;7.760;2022-11-15T08:08:28;99106.53;;;14.66;61.48
30021;BME280;16861;52.294;7.760;2022-11-15T08:10:57;99114.63;;;14.65;61.69
30021;BME280;16861;52.294;7.760;2022-11-15T08:13:24;99110.03;;;14.67;61.42
30021;BME280;16861;52.294;7.760;2022-11-15T08:15:50;99112.69;;;14.67;61.65
30021;BME280;16861;52.294;7.760;2022-11-15T08:18:23;99104.72;;;14.67;61.33
30021;BME280;16861;52.294;7.760;2022-11-15T08:20:49;99102.09;;;14.67;61.52
30021;BME280;16861;52.294;7.760;2022-11-15T08:23:16;99105.72;;;14.66;61.57
30021;BME280;16861;52.294;7.760;2022-11-15T08:25:42;99103.88;;;14.66;61.58
30021;BME280;16861;52.294;7.760;2022-11-15T08:28:10;99106.53;;;14.66;61.73
30021;BME280;16861;52.294;7.760;2022-11-15T08:30:39;99099.56;;;14.65;61.78
30021;BME280;16861;52.294;7.760;2022-11-15T08:33:11;99105.84;;;14.64;61.63
30021;BME280;16861;52.294;7.760;2022-11-15T08:35:39;99106.53;;;14.66;61.71
30021;BME280;16861;52.294;7.760;2022-11-15T08:38:06;99102.09;;;14.67;61.65
30021;BME280;16861;52.294;7.760;2022-11-15T08:40:32;99097.63;;;14.67;61.75
30021;BME280;16861;52.294;7.760;2022-11-15T08:42:59;99099.44;;;14.67;61.90
30021;BME280;16861;52.294;7.760;2022-11-15T08:45:30;99095.94;;;14.66;62.05
30021;BME280;16861;52.294;7.760;2022-11-15T08:47:56;99087.84;;;14.68;62.03
30021;BME280;16861;52.294;7.760;2022-11-15T08:50:23;99089.56;;;14.69;62.15
30021;BME280;16861;52.294;7.760;2022-11-15T08:52:50;99090.38;;;14.69;62.21
30021;BME280;16861;52.294;7.760;2022-11-15T08:55:16;99085.94;;;14.70;62.13
30021;BME280;16861;52.294;7.760;2022-11-15T08:57:43;99092.06;;;14.70;62.25
30021;BME280;16861;52.294;7.760;2022-11-15T09:00:11;99094.56;;;14.72;62.12
30021;BME280;16861;52.294;7.760;2022-11-15T09:02:41;99088.47;;;14.71;62.83
30021;BME280;16861;52.294;7.760;2022-11-15T09:05:08;99089.16;;;14.73;62.27
30021;BME280;16861;52.294;7.760;2022-11-15T09:07:34;99089.88;;;14.76;62.29
30021;BME280;16861;52.294;7.760;2022-11-15T09:10:02;99090.72;;;14.76;62.22
30021;BME280;16861;52.294;7.760;2022-11-15T09:12:29;99095.91;;;14.78;62.21
30021;BME280;16861;52.294;7.760;2022-11-15T09:14:56;99082.53;;;14.79;62.16
30021;BME280;16861;52.294;7.760;2022-11-15T09:17:22;99090.34;;;14.81;62.27
30021;BME280;16861;52.294;7.760;2022-11-15T09:19:50;99091.91;;;14.83;62.35
30021;BME280;16861;52.294;7.760;2022-11-15T09:22:17;99089.94;;;14.85;62.25
30021;BME280;16861;52.294;7.760;2022-11-15T09:24:44;99078.22;;;14.88;62.24
30021;BME280;16861;52.294;7.760;2022-11-15T09:27:11;99083.28;;;14.91;62.26
30021;BME280;16861;52.294;7.760;2022-11-15T09:29:39;99083.03;;;14.94;62.51
30021;BME280;16861;52.294;7.760;2022-11-15T09:32:05;99084.44;;;14.98;62.30
30021;BME280;16861;52.294;7.760;2022-11-15T09:34:32;99081.66;;;15.00;62.21
30021;BME280;16861;52.294;7.760;2022-11-15T09:36:59;99082.22;;;15.04;62.30
30021;BME280;16861;52.294;7.760;2022-11-15T09:39:25;99083.50;;;15.09;62.25
30021;BME280;16861;52.294;7.760;2022-11-15T09:41:59;99077.09;;;15.12;62.43
30021;BME280;16861;52.294;7.760;2022-11-15T09:44:45;99071.53;;;15.15;62.48
30021;BME280;16861;52.294;7.760;2022-11-15T09:50:34;99079.09;;;15.30;62.45
30021;BME280;16861;52.294;7.760;2022-11-15T09:53:03;99080.25;;;15.37;61.90
30021;BME280;16861;52.294;7.760;2022-11-15T09:55:46;99082.78;;;15.39;62.19
30021;BME280;16861;52.294;7.760;2022-11-15T09:58:38;99072.47;;;15.45;61.93
30021;BME280;16861;52.294;7.760;2022-11-15T10:01:16;99081.53;;;15.53;61.53
30021;BME280;16861;52.294;7.760;2022-11-15T10:03:43;99078.34;;;15.59;61.24
30021;BME280;16861;52.294;7.760;2022-11-15T10:06:40;99076.94;;;15.55;61.50
30021;BME280;16861;52.294;7.760;2022-11-15T10:11:40;99067.16;;;15.65;60.77
30021;BME280;16861;52.294;7.760;2022-11-15T10:24:45;99055.03;;;15.72;59.82
30021;BME280;16861;52.294;7.760;2022-11-15T10:27:15;99060.22;;;15.74;59.06
30021;BME280;16861;52.294;7.760;2022-11-15T10:29:44;99045.97;;;15.75;59.09
30021;BME280;16861;52.294;7.760;2022-11-15T10:32:13;99052.81;;;15.77;59.14
30021;BME280;16861;52.294;7.760;2022-11-15T10:34:40;99048.34;;;15.78;58.85
30021;BME280;16861;52.294;7.760;2022-11-15T10:37:07;99043.03;;;15.78;58.74
30021;BME280;16861;52.294;7.760;2022-11-15T10:39:34;99050.16;;;15.77;58.48
30021;BME280;16861;52.294;7.760;2022-11-15T10:42:18;99047.09;;;15.72;57.69
30021;BME280;16861;52.294;7.760;2022-11-15T10:44:51;99039.66;;;15.76;58.38
30021;BME280;16861;52.294;7.760;2022-11-15T10:47:30;99039.66;;;15.76;58.06
30021;BME280;16861;52.294;7.760;2022-11-15T10:50:11;99040.09;;;15.81;58.09
30021;BME280;16861;52.294;7.760;2022-11-15T10:52:52;99038.56;;;15.88;58.37
30021;BME280;16861;52.294;7.760;2022-11-15T10:55:25;99040.81;;;15.93;57.95
30021;BME280;16861;52.294;7.760;2022-11-15T10:57:55;99027.84;;;16.00;57.82
30021;BME280;16861;52.294;7.760;2022-11-15T11:00:32;99034.97;;;16.09;56.99
30021;BME280;16861;52.294;7.760;2022-11-15T11:03:02;99026.69;;;16.22;57.49
30021;BME280;16861;52.294;7.760;2022-11-15T11:05:33;99017.56;;;16.35;57.79
30021;BME280;16861;52.294;7.760;2022-11-15T11:10:37;99008.13;;;16.98;60.23
30021;BME280;16861;52.294;7.760;2022-11-15T11:13:27;99012.34;;;17.47;58.29
30021;BME280;16861;52.294;7.760;2022-11-15T11:21:25;98997.47;;;18.70;51.40
30021;BME280;16861;52.294;7.760;2022-11-15T11:37:33;98987.75;;;19.56;50.43
30021;BME280;16861;52.294;7.760;2022-11-15T11:48:14;98964.66;;;20.86;50.19
30021;BME280;16861;52.294;7.760;2022-11-15T11:50:45;98959.66;;;21.23;49.42
30021;BME280;16861;52.294;7.760;2022-11-15T11:53:15;98955.91;;;21.56;47.25
30021;BME280;16861;52.294;7.760;2022-11-15T11:55:51;98964.28;;;21.84;43.75
30021;BME280;16861;52.294;7.760;2022-11-15T11:58:32;98960.44;;;22.02;44.75
30021;BME280;16861;52.294;7.760;2022-11-15T12:06:40;98954.97;;;21.72;43.66
30021;BME280;16861;52.294;7.760;2022-11-15T12:09:36;98955.00;;;21.48;43.13
30021;BME280;16861;52.294;7.760;2022-11-15T12:12:13;98950.59;;;21.32;42.66
30021;BME280;16861;52.294;7.760;2022-11-15T12:17:26;98943.19;;;21.11;44.10
30021;BME280;16861;52.294;7.760;2022-11-15T12:19:57;98935.81;;;21.13;45.03
30021;BME280;16861;52.294;7.760;2022-11-15T12:25:02;98937.19;;;21.56;44.61
30021;BME280;16861;52.294;7.760;2022-11-15T12:27:39;98941.00;;;21.85;43.70
30021;BME280;16861;52.294;7.760;2022-11-15T12:30:19;98931.59;;;22.04;42.67
30021;BME280;16861;52.294;7.760;2022-11-15T12:32:52;98934.03;;;22.14;42.84
30021;BME280;16861;52.294;7.760;2022-11-15T12:35:42;98927.19;;;22.11;43.33
30021;BME280;16861;52.294;7.760;2022-11-15T12:38:12;98920.69;;;22.06;41.43
30021;BME280;16861;52.294;7.760;2022-11-15T12:41:18;98937.50;;;21.84;42.41
30021;BME280;16861;52.294;7.760;2022-11-15T12:43:47;98928.91;;;21.66;40.94
30021;BME280;16861;52.294;7.760;2022-11-15T12:49:08;98916.72;;;20.93;38.58
30021;BME280;16861;52.294;7.760;2022-11-15T13:02:39;98903.66;;;19.26;42.54
30021;BME280;16861;52.294;7.760;2022-11-15T13:12:58;98904.88;;;18.81;44.00
30021;BME280;16861;52.294;7.760;2022-11-15T13:15:56;98906.31;;;18.67;44.21
30021;BME280;16861;52.294;7.760;2022-11-15T13:18:33;98907.63;;;18.62;43.70
30021;BME280;16861;52.294;7.760;2022-11-15T13:21:02;98910.47;;;18.61;44.29
30021;BME280;16861;52.294;7.760;2022-11-15T13:23:55;98897.47;;;18.58;44.11
30021;BME280;16861;52.294;7.760;2022-11-15T13:26:22;98904.66;;;18.66;45.02
30021;BME280;16861;52.294;7.760;2022-11-15T13:28:50;98895.84;;;18.73;44.80
30021;BME280;16861;52.294;7.760;2022-11-15T13:31:36;98897.06;;;18.87;43.98
30021;BME280;16861;52.294;7.760;2022-11-15T13:34:31;98893.09;;;19.00;44.56
30021;BME280;16861;52.294;7.760;2022-11-15T13:39:46;98886.31;;;19.31;44.59
30021;BME280;16861;52.294;7.760;2022-11-15T13:42:18;98882.47;;;19.42;43.54
30021;BME280;16861;52.294;7.760;2022-11-15T13:45:00;98875.16;;;19.60;44.28
30021;BME280;16861;52.294;7.760;2022-11-15T13:47:28;98876.78;;;19.86;44.81
30021;BME280;16861;52.294;7.760;2022-11-15T13:49:59;98884.75;;;20.11;43.70
30021;BME280;16861;52.294;7.760;2022-11-15T13:52:32;98862.78;;;20.41;43.10
30021;BME280;16861;52.294;7.760;2022-11-15T14:02:48;98855.31;;;21.38;43.87
30021;BME280;16861;52.294;7.760;2022-11-15T14:05:18;98857.34;;;21.59;41.14
30021;BME280;16861;52.294;7.760;2022-11-15T14:07:57;98847.75;;;21.65;40.80
30021;BME280;16861;52.294;7.760;2022-11-15T14:10:35;98845.69;;;21.67;40.03
30021;BME280;16861;52.294;7.760;2022-11-15T14:13:04;98842.19;;;21.67;40.19
30021;BME280;16861;52.294;7.760;2022-11-15T14:15:37;98844.13;;;21.58;39.93
30021;BME280;16861;52.294;7.760;2022-11-15T14:18:06;98835.88;;;21.44;39.70
30021;BME280;16861;52.294;7.760;2022-11-15T14:20:35;98830.66;;;21.28;39.41
30021;BME280;16861;52.294;7.760;2022-11-15T14:23:04;98821.47;;;21.07;39.79
30021;BME280;16861;52.294;7.760;2022-11-15T14:25:34;98826.28;;;20.88;39.78
30021;BME280;16861;52.294;7.760;2022-11-15T14:30:34;98808.50;;;20.40;40.23
30021;BME280;16861;52.294;7.760;2022-11-15T14:33:00;98805.75;;;20.17;40.12
30021;BME280;16861;52.294;7.760;2022-11-15T14:35:27;98806.66;;;19.92;40.35
30021;BME280;16861;52.294;7.760;2022-11-15T14:37:53;98808.03;;;19.72;40.81
30021;BME280;16861;52.294;7.760;2022-11-15T14:40:21;98805.91;;;19.50;40.91
30021;BME280;16861;52.294;7.760;2022-11-15T14:42:49;98805.28;;;19.32;41.16
30021;BME280;16861;52.294;7.760;2022-11-15T14:45:20;98808.59;;;19.09;41.06
30021;BME280;16861;52.294;7.760;2022-11-15T14:47:48;98805.06;;;18.92;41.63
30021;BME280;16861;52.294;7.760;2022-11-15T14:50:17;98802.69;;;18.72;41.92
30021;BME280;16861;52.294;7.760;2022-11-15T14:52:44;98806.19;;;18.56;42.12
30021;BME280;16861;52.294;7.760;2022-11-15T14:55:25;98804.97;;;18.33;42.43
30021;BME280;16861;52.294;7.760;2022-11-15T14:57:54;98808.75;;;18.22;42.48
30021;BME280;16861;52.294;7.760;2022-11-15T15:00:22;98795.34;;;18.06;42.70
30021;BME280;16861;52.294;7.760;2022-11-15T15:02:51;98795.91;;;17.91;42.93
30021;BME280;16861;52.294;7.760;2022-11-15T15:05:20;98792.03;;;17.77;43.05
30021;BME280;16861;52.294;7.760;2022-11-15T15:07:47;98787.28;;;17.63;43.13
30021;BME280;16861;52.294;7.760;2022-11-15T15:10:16;98786.88;;;17.49;43.38
30021;BME280;16861;52.294;7.760;2022-11-15T15:13:04;98782.13;;;17.35;43.39
30021;BME280;16861;52.294;7.760;2022-11-15T15:15:34;98779.88;;;17.22;43.48
30021;BME280;16861;52.294;7.760;2022-11-15T15:18:01;98779.28;;;17.10;43.55
30021;BME280;16861;52.294;7.760;2022-11-15T15:20:29;98780.47;;;16.97;43.88